Terminal Aerodrome Forecast
Issued by NWS Sterling, VA

Current Version | Previous Version | Text Only | Print | Product List | Glossary Off
Versions: 1 2 3 4 5 6 7 8 9 10 11 12 13 14 15 16 17 18

960
FTUS41 KLWX 272334
TAFMRB
TAF
KMRB 272334Z 2800/2824 19005KT 6SM -TSRA BKN050CB
     FM280100 19004KT P6SM VCTS BKN050CB
     FM280200 VRB03KT P6SM BKN050
     FM280500 VRB03KT 3SM BR SCT100
     FM281000 VRB03KT 2SM BR SCT100
     FM281300 00000KT P6SM SCT090
     FM281800 17008KT P6SM SCT060=

USA.gov is the U.S. government's official web portal to all federal, state and local government web resources and services.